sensor_id;sensor_type;location;lat;lon;timestamp;P1;durP1;ratioP1;P2;durP2;ratioP2
14251;SDS011;7210;51.502;10.722;2023-05-16T00:01:22;15.03;;;13.53;;
14251;SDS011;7210;51.502;10.722;2023-05-16T00:04:08;15.13;;;13.77;;
14251;SDS011;7210;51.502;10.722;2023-05-16T00:06:35;15.33;;;13.83;;
14251;SDS011;7210;51.502;10.722;2023-05-16T00:09:06;16.10;;;14.47;;
14251;SDS011;7210;51.502;10.722;2023-05-16T00:11:34;15.97;;;14.63;;
14251;SDS011;7210;51.502;10.722;2023-05-16T00:14:06;16.20;;;14.60;;
14251;SDS011;7210;51.502;10.722;2023-05-16T00:16:36;17.50;;;15.70;;
14251;SDS011;7210;51.502;10.722;2023-05-16T00:19:07;17.37;;;15.80;;
14251;SDS011;7210;51.502;10.722;2023-05-16T00:21:35;20.70;;;18.60;;
14251;SDS011;7210;51.502;10.722;2023-05-16T00:24:12;20.83;;;18.63;;
14251;SDS011;7210;51.502;10.722;2023-05-16T00:26:54;23.60;;;21.20;;
14251;SDS011;7210;51.502;10.722;2023-05-16T00:29:21;25.03;;;22.43;;
14251;SDS011;7210;51.502;10.722;2023-05-16T00:31:54;26.10;;;23.50;;
14251;SDS011;7210;51.502;10.722;2023-05-16T00:34:23;27.93;;;25.23;;
14251;SDS011;7210;51.502;10.722;2023-05-16T00:36:51;29.97;;;27.07;;
14251;SDS011;7210;51.502;10.722;2023-05-16T00:39:18;30.43;;;27.37;;
14251;SDS011;7210;51.502;10.722;2023-05-16T00:41:48;30.60;;;27.60;;
14251;SDS011;7210;51.502;10.722;2023-05-16T00:44:30;31.53;;;28.13;;
14251;SDS011;7210;51.502;10.722;2023-05-16T00:47:12;31.67;;;28.53;;
14251;SDS011;7210;51.502;10.722;2023-05-16T00:49:41;32.37;;;28.17;;
14251;SDS011;7210;51.502;10.722;2023-05-16T00:52:09;30.03;;;27.03;;
14251;SDS011;7210;51.502;10.722;2023-05-16T00:54:42;31.20;;;28.13;;
14251;SDS011;7210;51.502;10.722;2023-05-16T00:57:11;29.37;;;26.50;;
14251;SDS011;7210;51.502;10.722;2023-05-16T00:59:39;31.37;;;28.13;;
14251;SDS011;7210;51.502;10.722;2023-05-16T01:02:06;28.27;;;25.47;;
14251;SDS011;7210;51.502;10.722;2023-05-16T01:04:44;27.60;;;25.00;;
14251;SDS011;7210;51.502;10.722;2023-05-16T01:07:13;28.40;;;25.70;;
14251;SDS011;7210;51.502;10.722;2023-05-16T01:09:40;27.60;;;24.90;;
14251;SDS011;7210;51.502;10.722;2023-05-16T01:12:10;27.03;;;24.33;;
14251;SDS011;7210;51.502;10.722;2023-05-16T01:14:55;26.30;;;23.87;;
14251;SDS011;7210;51.502;10.722;2023-05-16T01:17:32;26.13;;;23.73;;
14251;SDS011;7210;51.502;10.722;2023-05-16T01:20:14;25.97;;;23.33;;
14251;SDS011;7210;51.502;10.722;2023-05-16T01:23:02;25.43;;;22.90;;
14251;SDS011;7210;51.502;10.722;2023-05-16T01:25:55;26.57;;;22.97;;
14251;SDS011;7210;51.502;10.722;2023-05-16T01:28:49;25.27;;;22.67;;
14251;SDS011;7210;51.502;10.722;2023-05-16T01:31:18;23.90;;;21.70;;
14251;SDS011;7210;51.502;10.722;2023-05-16T01:33:46;24.03;;;21.73;;
14251;SDS011;7210;51.502;10.722;2023-05-16T01:36:16;23.20;;;21.00;;
14251;SDS011;7210;51.502;10.722;2023-05-16T01:38:57;22.27;;;20.07;;
14251;SDS011;7210;51.502;10.722;2023-05-16T01:41:48;22.17;;;19.87;;
14251;SDS011;7210;51.502;10.722;2023-05-16T01:44:28;20.87;;;18.67;;
14251;SDS011;7210;51.502;10.722;2023-05-16T01:47:06;21.13;;;19.03;;
14251;SDS011;7210;51.502;10.722;2023-05-16T01:49:56;20.43;;;18.50;;
14251;SDS011;7210;51.502;10.722;2023-05-16T01:52:32;19.77;;;17.87;;
14251;SDS011;7210;51.502;10.722;2023-05-16T01:55:06;19.53;;;17.60;;
14251;SDS011;7210;51.502;10.722;2023-05-16T01:57:42;20.23;;;18.33;;
14251;SDS011;7210;51.502;10.722;2023-05-16T02:00:12;21.03;;;19.03;;
14251;SDS011;7210;51.502;10.722;2023-05-16T02:02:40;20.13;;;18.13;;
14251;SDS011;7210;51.502;10.722;2023-05-16T02:05:07;21.47;;;19.03;;
14251;SDS011;7210;51.502;10.722;2023-05-16T02:10:31;17.40;;;15.60;;
14251;SDS011;7210;51.502;10.722;2023-05-16T02:13:00;16.00;;;14.50;;
14251;SDS011;7210;51.502;10.722;2023-05-16T02:15:27;16.10;;;14.60;;
14251;SDS011;7210;51.502;10.722;2023-05-16T02:21:11;15.13;;;13.53;;
14251;SDS011;7210;51.502;10.722;2023-05-16T02:23:38;14.53;;;13.13;;
14251;SDS011;7210;51.502;10.722;2023-05-16T02:26:05;15.27;;;13.33;;
14251;SDS011;7210;51.502;10.722;2023-05-16T02:28:34;13.93;;;12.37;;
14251;SDS011;7210;51.502;10.722;2023-05-16T02:31:01;14.70;;;13.20;;
14251;SDS011;7210;51.502;10.722;2023-05-16T02:33:29;15.07;;;12.80;;
14251;SDS011;7210;51.502;10.722;2023-05-16T02:35:56;14.53;;;12.77;;
14251;SDS011;7210;51.502;10.722;2023-05-16T02:38:24;14.43;;;13.03;;
14251;SDS011;7210;51.502;10.722;2023-05-16T02:40:54;15.40;;;13.40;;
14251;SDS011;7210;51.502;10.722;2023-05-16T02:43:21;15.13;;;13.57;;
14251;SDS011;7210;51.502;10.722;2023-05-16T02:45:49;14.90;;;13.40;;
14251;SDS011;7210;51.502;10.722;2023-05-16T02:48:17;15.53;;;13.33;;
14251;SDS011;7210;51.502;10.722;2023-05-16T02:50:44;14.33;;;12.87;;
14251;SDS011;7210;51.502;10.722;2023-05-16T02:53:11;14.77;;;13.33;;
14251;SDS011;7210;51.502;10.722;2023-05-16T02:55:38;15.90;;;13.70;;
14251;SDS011;7210;51.502;10.722;2023-05-16T02:58:06;14.37;;;12.97;;
14251;SDS011;7210;51.502;10.722;2023-05-16T03:00:33;15.07;;;13.57;;
14251;SDS011;7210;51.502;10.722;2023-05-16T03:03:02;17.87;;;14.37;;
14251;SDS011;7210;51.502;10.722;2023-05-16T03:05:31;15.83;;;14.13;;
14251;SDS011;7210;51.502;10.722;2023-05-16T03:07:58;16.00;;;13.93;;
14251;SDS011;7210;51.502;10.722;2023-05-16T03:10:26;14.97;;;13.37;;
14251;SDS011;7210;51.502;10.722;2023-05-16T03:12:53;15.90;;;14.07;;
14251;SDS011;7210;51.502;10.722;2023-05-16T03:15:20;15.93;;;14.23;;
14251;SDS011;7210;51.502;10.722;2023-05-16T03:17:48;16.23;;;14.53;;
14251;SDS011;7210;51.502;10.722;2023-05-16T03:20:17;16.60;;;13.90;;
14251;SDS011;7210;51.502;10.722;2023-05-16T03:22:44;15.57;;;14.03;;
14251;SDS011;7210;51.502;10.722;2023-05-16T03:25:13;16.50;;;14.73;;
14251;SDS011;7210;51.502;10.722;2023-05-16T03:27:43;16.13;;;14.50;;
14251;SDS011;7210;51.502;10.722;2023-05-16T03:30:11;16.00;;;14.40;;
14251;SDS011;7210;51.502;10.722;2023-05-16T03:32:39;16.27;;;14.73;;
14251;SDS011;7210;51.502;10.722;2023-05-16T03:35:06;15.93;;;14.17;;
14251;SDS011;7210;51.502;10.722;2023-05-16T03:37:45;15.60;;;14.07;;
14251;SDS011;7210;51.502;10.722;2023-05-16T03:40:12;16.87;;;13.93;;
14251;SDS011;7210;51.502;10.722;2023-05-16T03:42:39;16.50;;;14.90;;
14251;SDS011;7210;51.502;10.722;2023-05-16T03:45:07;15.87;;;14.37;;
14251;SDS011;7210;51.502;10.722;2023-05-16T03:47:35;16.40;;;14.57;;
14251;SDS011;7210;51.502;10.722;2023-05-16T03:50:02;16.37;;;14.03;;
14251;SDS011;7210;51.502;10.722;2023-05-16T03:52:45;16.00;;;14.13;;
14251;SDS011;7210;51.502;10.722;2023-05-16T03:55:13;18.20;;;14.17;;
14251;SDS011;7210;51.502;10.722;2023-05-16T03:57:41;16.47;;;13.93;;
14251;SDS011;7210;51.502;10.722;2023-05-16T04:00:09;15.17;;;13.57;;
14251;SDS011;7210;51.502;10.722;2023-05-16T04:02:38;16.70;;;13.03;;
14251;SDS011;7210;51.502;10.722;2023-05-16T04:05:07;14.33;;;12.87;;
14251;SDS011;7210;51.502;10.722;2023-05-16T04:07:37;16.83;;;12.60;;
14251;SDS011;7210;51.502;10.722;2023-05-16T04:10:07;12.73;;;11.53;;
14251;SDS011;7210;51.502;10.722;2023-05-16T04:12:36;12.87;;;11.57;;
14251;SDS011;7210;51.502;10.722;2023-05-16T04:15:07;12.40;;;11.20;;
14251;SDS011;7210;51.502;10.722;2023-05-16T04:17:37;12.67;;;11.27;;
14251;SDS011;7210;51.502;10.722;2023-05-16T04:20:05;10.80;;;9.70;;
14251;SDS011;7210;51.502;10.722;2023-05-16T04:22:33;11.60;;;10.40;;
14251;SDS011;7210;51.502;10.722;2023-05-16T04:25:01;11.30;;;10.10;;
14251;SDS011;7210;51.502;10.722;2023-05-16T04:27:30;10.47;;;9.37;;
14251;SDS011;7210;51.502;10.722;2023-05-16T04:30:08;12.37;;;10.10;;
14251;SDS011;7210;51.502;10.722;2023-05-16T04:32:37;11.50;;;10.40;;
14251;SDS011;7210;51.502;10.722;2023-05-16T04:35:05;12.43;;;9.27;;
14251;SDS011;7210;51.502;10.722;2023-05-16T04:37:37;9.80;;;8.90;;
14251;SDS011;7210;51.502;10.722;2023-05-16T04:40:05;10.63;;;9.47;;
14251;SDS011;7210;51.502;10.722;2023-05-16T04:42:35;9.90;;;8.90;;
14251;SDS011;7210;51.502;10.722;2023-05-16T04:45:02;9.60;;;8.57;;
14251;SDS011;7210;51.502;10.722;2023-05-16T04:47:35;9.17;;;8.37;;
14251;SDS011;7210;51.502;10.722;2023-05-16T04:50:03;8.80;;;7.80;;
14251;SDS011;7210;51.502;10.722;2023-05-16T04:52:35;8.60;;;7.73;;
14251;SDS011;7210;51.502;10.722;2023-05-16T04:55:06;8.13;;;7.37;;
14251;SDS011;7210;51.502;10.722;2023-05-16T04:57:40;7.33;;;6.63;;
14251;SDS011;7210;51.502;10.722;2023-05-16T05:00:11;7.90;;;7.10;;
14251;SDS011;7210;51.502;10.722;2023-05-16T05:02:43;8.00;;;6.73;;
14251;SDS011;7210;51.502;10.722;2023-05-16T05:05:11;8.20;;;7.43;;
14251;SDS011;7210;51.502;10.722;2023-05-16T05:07:43;8.23;;;7.43;;
14251;SDS011;7210;51.502;10.722;2023-05-16T05:10:11;7.73;;;7.03;;
14251;SDS011;7210;51.502;10.722;2023-05-16T05:12:45;8.53;;;7.73;;
14251;SDS011;7210;51.502;10.722;2023-05-16T05:15:12;7.13;;;6.43;;
14251;SDS011;7210;51.502;10.722;2023-05-16T05:17:39;8.50;;;7.37;;
14251;SDS011;7210;51.502;10.722;2023-05-16T05:20:07;8.47;;;7.77;;
14251;SDS011;7210;51.502;10.722;2023-05-16T05:22:35;8.60;;;7.70;;
14251;SDS011;7210;51.502;10.722;2023-05-16T05:25:04;7.77;;;6.73;;
14251;SDS011;7210;51.502;10.722;2023-05-16T05:27:32;8.73;;;7.83;;
14251;SDS011;7210;51.502;10.722;2023-05-16T05:30:09;8.27;;;7.47;;
14251;SDS011;7210;51.502;10.722;2023-05-16T05:32:37;8.80;;;7.90;;
14251;SDS011;7210;51.502;10.722;2023-05-16T05:35:07;8.70;;;7.80;;
14251;SDS011;7210;51.502;10.722;2023-05-16T05:37:35;8.13;;;7.23;;
14251;SDS011;7210;51.502;10.722;2023-05-16T05:40:02;8.50;;;7.70;;
14251;SDS011;7210;51.502;10.722;2023-05-16T05:42:31;8.27;;;7.17;;
14251;SDS011;7210;51.502;10.722;2023-05-16T05:45:01;6.80;;;6.10;;
14251;SDS011;7210;51.502;10.722;2023-05-16T05:47:31;7.27;;;6.33;;
14251;SDS011;7210;51.502;10.722;2023-05-16T05:49:58;7.70;;;6.40;;
14251;SDS011;7210;51.502;10.722;2023-05-16T05:52:26;6.83;;;6.17;;
14251;SDS011;7210;51.502;10.722;2023-05-16T05:54:54;6.30;;;5.60;;
14251;SDS011;7210;51.502;10.722;2023-05-16T05:57:23;6.53;;;5.37;;
14251;SDS011;7210;51.502;10.722;2023-05-16T05:59:50;6.27;;;5.40;;
14251;SDS011;7210;51.502;10.722;2023-05-16T06:02:18;9.57;;;6.20;;
14251;SDS011;7210;51.502;10.722;2023-05-16T06:04:47;5.67;;;5.07;;
14251;SDS011;7210;51.502;10.722;2023-05-16T06:07:14;5.90;;;5.30;;
14251;SDS011;7210;51.502;10.722;2023-05-16T06:09:42;8.07;;;5.70;;
14251;SDS011;7210;51.502;10.722;2023-05-16T06:12:09;6.33;;;5.73;;
14251;SDS011;7210;51.502;10.722;2023-05-16T06:14:37;8.50;;;6.07;;
14251;SDS011;7210;51.502;10.722;2023-05-16T06:17:05;6.37;;;5.77;;
14251;SDS011;7210;51.502;10.722;2023-05-16T06:19:32;5.90;;;5.30;;
14251;SDS011;7210;51.502;10.722;2023-05-16T06:22:00;6.37;;;5.03;;
14251;SDS011;7210;51.502;10.722;2023-05-16T06:24:27;6.30;;;4.77;;
14251;SDS011;7210;51.502;10.722;2023-05-16T06:26:55;4.27;;;3.87;;
14251;SDS011;7210;51.502;10.722;2023-05-16T06:29:22;4.27;;;3.80;;
14251;SDS011;7210;51.502;10.722;2023-05-16T06:31:50;4.80;;;3.43;;
14251;SDS011;7210;51.502;10.722;2023-05-16T06:34:17;3.40;;;3.10;;
14251;SDS011;7210;51.502;10.722;2023-05-16T06:36:44;4.10;;;3.10;;
14251;SDS011;7210;51.502;10.722;2023-05-16T06:39:13;7.40;;;2.73;;
14251;SDS011;7210;51.502;10.722;2023-05-16T06:41:40;3.80;;;2.90;;
14251;SDS011;7210;51.502;10.722;2023-05-16T06:44:14;3.87;;;2.57;;
14251;SDS011;7210;51.502;10.722;2023-05-16T06:46:43;3.00;;;2.60;;
14251;SDS011;7210;51.502;10.722;2023-05-16T06:49:11;3.40;;;2.57;;
14251;SDS011;7210;51.502;10.722;2023-05-16T06:51:38;6.10;;;2.77;;
14251;SDS011;7210;51.502;10.722;2023-05-16T06:54:05;3.50;;;2.50;;
14251;SDS011;7210;51.502;10.722;2023-05-16T06:56:39;2.87;;;2.13;;
14251;SDS011;7210;51.502;10.722;2023-05-16T06:59:07;2.80;;;2.40;;
14251;SDS011;7210;51.502;10.722;2023-05-16T07:01:34;3.47;;;2.23;;
14251;SDS011;7210;51.502;10.722;2023-05-16T07:04:02;3.23;;;2.40;;
14251;SDS011;7210;51.502;10.722;2023-05-16T07:06:29;3.03;;;2.33;;
14251;SDS011;7210;51.502;10.722;2023-05-16T07:08:56;3.40;;;2.40;;
14251;SDS011;7210;51.502;10.722;2023-05-16T07:11:23;3.30;;;2.07;;
14251;SDS011;7210;51.502;10.722;2023-05-16T07:13:57;2.30;;;1.60;;
14251;SDS011;7210;51.502;10.722;2023-05-16T07:16:24;2.07;;;1.47;;
14251;SDS011;7210;51.502;10.722;2023-05-16T07:18:52;1.50;;;1.37;;
14251;SDS011;7210;51.502;10.722;2023-05-16T07:21:19;1.63;;;1.30;;
14251;SDS011;7210;51.502;10.722;2023-05-16T07:23:49;2.20;;;1.60;;
14251;SDS011;7210;51.502;10.722;2023-05-16T07:26:16;2.80;;;1.90;;
14251;SDS011;7210;51.502;10.722;2023-05-16T07:28:46;1.83;;;1.40;;
14251;SDS011;7210;51.502;10.722;2023-05-16T07:31:14;6.87;;;5.23;;
14251;SDS011;7210;51.502;10.722;2023-05-16T07:33:42;2.87;;;1.40;;
14251;SDS011;7210;51.502;10.722;2023-05-16T07:36:13;3.80;;;1.50;;
14251;SDS011;7210;51.502;10.722;2023-05-16T07:38:41;1.97;;;1.70;;
14251;SDS011;7210;51.502;10.722;2023-05-16T07:41:13;2.30;;;1.87;;
14251;SDS011;7210;51.502;10.722;2023-05-16T07:43:40;2.83;;;1.60;;
14251;SDS011;7210;51.502;10.722;2023-05-16T07:46:08;2.93;;;1.90;;
14251;SDS011;7210;51.502;10.722;2023-05-16T07:48:38;2.47;;;1.87;;
14251;SDS011;7210;51.502;10.722;2023-05-16T07:51:05;2.43;;;1.70;;
14251;SDS011;7210;51.502;10.722;2023-05-16T07:53:37;3.67;;;1.50;;
14251;SDS011;7210;51.502;10.722;2023-05-16T07:56:13;3.03;;;1.97;;
14251;SDS011;7210;51.502;10.722;2023-05-16T07:58:40;3.30;;;1.63;;
14251;SDS011;7210;51.502;10.722;2023-05-16T08:01:08;3.33;;;1.87;;
14251;SDS011;7210;51.502;10.722;2023-05-16T08:03:36;3.93;;;2.30;;
14251;SDS011;7210;51.502;10.722;2023-05-16T08:06:04;4.33;;;2.43;;
14251;SDS011;7210;51.502;10.722;2023-05-16T08:08:32;3.60;;;2.00;;
14251;SDS011;7210;51.502;10.722;2023-05-16T08:10:59;3.93;;;2.60;;
14251;SDS011;7210;51.502;10.722;2023-05-16T08:13:26;6.13;;;2.47;;
14251;SDS011;7210;51.502;10.722;2023-05-16T08:15:53;4.20;;;2.47;;
14251;SDS011;7210;51.502;10.722;2023-05-16T08:21:14;3.20;;;2.90;;
14251;SDS011;7210;51.502;10.722;2023-05-16T08:23:41;6.07;;;2.70;;
14251;SDS011;7210;51.502;10.722;2023-05-16T08:26:09;5.17;;;2.80;;
14251;SDS011;7210;51.502;10.722;2023-05-16T08:28:37;6.17;;;3.60;;
14251;SDS011;7210;51.502;10.722;2023-05-16T08:31:04;4.60;;;2.93;;
14251;SDS011;7210;51.502;10.722;2023-05-16T08:33:32;4.57;;;3.43;;
14251;SDS011;7210;51.502;10.722;2023-05-16T08:36:00;4.73;;;3.50;;
14251;SDS011;7210;51.502;10.722;2023-05-16T08:38:31;6.47;;;3.40;;
14251;SDS011;7210;51.502;10.722;2023-05-16T08:41:13;8.83;;;5.97;;
14251;SDS011;7210;51.502;10.722;2023-05-16T08:43:41;8.53;;;3.80;;
14251;SDS011;7210;51.502;10.722;2023-05-16T08:46:13;5.80;;;3.40;;
14251;SDS011;7210;51.502;10.722;2023-05-16T08:48:45;10.77;;;3.83;;
14251;SDS011;7210;51.502;10.722;2023-05-16T08:51:21;7.73;;;4.43;;
14251;SDS011;7210;51.502;10.722;2023-05-16T08:54:02;6.60;;;4.43;;
14251;SDS011;7210;51.502;10.722;2023-05-16T08:56:33;9.20;;;3.53;;
14251;SDS011;7210;51.502;10.722;2023-05-16T08:59:02;10.20;;;3.60;;
14251;SDS011;7210;51.502;10.722;2023-05-16T09:01:37;8.07;;;3.40;;
14251;SDS011;7210;51.502;10.722;2023-05-16T09:04:06;4.97;;;2.67;;
14251;SDS011;7210;51.502;10.722;2023-05-16T09:06:36;7.50;;;3.20;;
14251;SDS011;7210;51.502;10.722;2023-05-16T09:09:03;8.33;;;3.00;;
14251;SDS011;7210;51.502;10.722;2023-05-16T09:11:32;9.27;;;2.73;;
14251;SDS011;7210;51.502;10.722;2023-05-16T09:14:00;9.90;;;6.10;;
14251;SDS011;7210;51.502;10.722;2023-05-16T09:16:27;10.97;;;3.40;;
14251;SDS011;7210;51.502;10.722;2023-05-16T09:18:56;6.67;;;2.90;;
14251;SDS011;7210;51.502;10.722;2023-05-16T09:21:26;5.33;;;2.33;;
14251;SDS011;7210;51.502;10.722;2023-05-16T09:23:57;5.17;;;2.60;;
14251;SDS011;7210;51.502;10.722;2023-05-16T09:26:30;7.53;;;2.90;;
14251;SDS011;7210;51.502;10.722;2023-05-16T09:29:01;6.17;;;2.63;;
14251;SDS011;7210;51.502;10.722;2023-05-16T09:31:36;7.60;;;2.40;;
14251;SDS011;7210;51.502;10.722;2023-05-16T09:34:06;6.97;;;2.40;;
14251;SDS011;7210;51.502;10.722;2023-05-16T09:36:35;12.93;;;3.50;;
14251;SDS011;7210;51.502;10.722;2023-05-16T09:39:04;9.63;;;3.63;;
14251;SDS011;7210;51.502;10.722;2023-05-16T09:41:37;8.90;;;2.90;;
14251;SDS011;7210;51.502;10.722;2023-05-16T09:44:13;8.63;;;2.33;;
14251;SDS011;7210;51.502;10.722;2023-05-16T09:46:44;8.87;;;2.40;;
14251;SDS011;7210;51.502;10.722;2023-05-16T09:49:11;6.63;;;2.30;;
14251;SDS011;7210;51.502;10.722;2023-05-16T09:51:40;6.37;;;2.30;;
14251;SDS011;7210;51.502;10.722;2023-05-16T09:54:10;5.20;;;1.83;;
14251;SDS011;7210;51.502;10.722;2023-05-16T09:59:27;4.87;;;1.93;;
14251;SDS011;7210;51.502;10.722;2023-05-16T10:01:56;7.87;;;2.00;;
14251;SDS011;7210;51.502;10.722;2023-05-16T10:04:24;7.57;;;2.43;;
14251;SDS011;7210;51.502;10.722;2023-05-16T10:06:52;7.10;;;2.00;;
14251;SDS011;7210;51.502;10.722;2023-05-16T10:09:23;7.57;;;2.10;;
14251;SDS011;7210;51.502;10.722;2023-05-16T10:11:52;8.47;;;2.53;;
14251;SDS011;7210;51.502;10.722;2023-05-16T10:14:22;5.00;;;1.80;;
14251;SDS011;7210;51.502;10.722;2023-05-16T10:16:51;6.30;;;2.13;;
14251;SDS011;7210;51.502;10.722;2023-05-16T10:19:19;6.57;;;2.03;;
14251;SDS011;7210;51.502;10.722;2023-05-16T10:21:56;7.83;;;1.90;;
14251;SDS011;7210;51.502;10.722;2023-05-16T10:24:33;5.93;;;2.13;;
14251;SDS011;7210;51.502;10.722;2023-05-16T10:27:06;7.33;;;2.60;;
14251;SDS011;7210;51.502;10.722;2023-05-16T10:29:35;5.57;;;1.83;;
14251;SDS011;7210;51.502;10.722;2023-05-16T10:32:04;5.80;;;2.03;;
14251;SDS011;7210;51.502;10.722;2023-05-16T10:34:33;4.83;;;1.87;;
14251;SDS011;7210;51.502;10.722;2023-05-16T10:37:01;7.47;;;2.67;;
14251;SDS011;7210;51.502;10.722;2023-05-16T10:39:31;4.63;;;1.57;;
14251;SDS011;7210;51.502;10.722;2023-05-16T10:42:00;7.73;;;1.80;;
14251;SDS011;7210;51.502;10.722;2023-05-16T10:44:30;6.20;;;2.20;;
14251;SDS011;7210;51.502;10.722;2023-05-16T10:46:58;5.87;;;1.60;;
14251;SDS011;7210;51.502;10.722;2023-05-16T10:49:29;6.63;;;1.97;;
14251;SDS011;7210;51.502;10.722;2023-05-16T10:52:03;6.63;;;2.00;;
14251;SDS011;7210;51.502;10.722;2023-05-16T10:54:35;4.80;;;1.57;;
14251;SDS011;7210;51.502;10.722;2023-05-16T10:57:06;5.87;;;1.70;;
14251;SDS011;7210;51.502;10.722;2023-05-16T10:59:39;6.53;;;1.77;;
14251;SDS011;7210;51.502;10.722;2023-05-16T11:02:25;5.50;;;1.70;;
14251;SDS011;7210;51.502;10.722;2023-05-16T11:04:57;5.67;;;1.80;;
14251;SDS011;7210;51.502;10.722;2023-05-16T11:07:29;4.87;;;1.80;;
14251;SDS011;7210;51.502;10.722;2023-05-16T11:10:04;3.63;;;1.70;;
14251;SDS011;7210;51.502;10.722;2023-05-16T11:12:41;4.00;;;1.60;;
14251;SDS011;7210;51.502;10.722;2023-05-16T11:15:21;4.70;;;1.90;;
14251;SDS011;7210;51.502;10.722;2023-05-16T11:17:53;8.03;;;1.73;;
14251;SDS011;7210;51.502;10.722;2023-05-16T11:20:32;6.50;;;1.77;;
14251;SDS011;7210;51.502;10.722;2023-05-16T11:25:50;4.47;;;1.80;;
14251;SDS011;7210;51.502;10.722;2023-05-16T11:28:20;5.73;;;1.40;;
14251;SDS011;7210;51.502;10.722;2023-05-16T11:30:50;4.67;;;1.67;;
14251;SDS011;7210;51.502;10.722;2023-05-16T11:33:21;4.03;;;1.37;;
14251;SDS011;7210;51.502;10.722;2023-05-16T11:35:58;5.90;;;1.70;;
14251;SDS011;7210;51.502;10.722;2023-05-16T11:38:28;5.23;;;1.83;;
14251;SDS011;7210;51.502;10.722;2023-05-16T11:41:04;4.37;;;1.40;;
14251;SDS011;7210;51.502;10.722;2023-05-16T11:43:38;4.50;;;1.60;;
14251;SDS011;7210;51.502;10.722;2023-05-16T11:46:09;7.13;;;2.17;;
14251;SDS011;7210;51.502;10.722;2023-05-16T11:48:37;5.13;;;1.60;;
14251;SDS011;7210;51.502;10.722;2023-05-16T11:51:05;8.27;;;2.03;;
14251;SDS011;7210;51.502;10.722;2023-05-16T11:53:32;4.37;;;1.53;;
14251;SDS011;7210;51.502;10.722;2023-05-16T11:56:00;5.90;;;1.83;;
14251;SDS011;7210;51.502;10.722;2023-05-16T11:58:33;3.97;;;1.60;;
14251;SDS011;7210;51.502;10.722;2023-05-16T12:01:02;3.53;;;1.50;;
14251;SDS011;7210;51.502;10.722;2023-05-16T12:03:30;2.97;;;1.47;;
14251;SDS011;7210;51.502;10.722;2023-05-16T12:05:59;6.17;;;1.90;;
14251;SDS011;7210;51.502;10.722;2023-05-16T12:08:27;3.80;;;1.30;;
14251;SDS011;7210;51.502;10.722;2023-05-16T12:10:54;7.00;;;1.43;;
14251;SDS011;7210;51.502;10.722;2023-05-16T12:13:25;4.57;;;1.50;;
14251;SDS011;7210;51.502;10.722;2023-05-16T12:15:54;5.17;;;2.03;;
14251;SDS011;7210;51.502;10.722;2023-05-16T12:18:25;9.90;;;2.50;;
14251;SDS011;7210;51.502;10.722;2023-05-16T12:20:53;4.40;;;1.27;;
14251;SDS011;7210;51.502;10.722;2023-05-16T12:23:20;8.43;;;1.80;;
14251;SDS011;7210;51.502;10.722;2023-05-16T12:25:49;4.27;;;1.40;;
14251;SDS011;7210;51.502;10.722;2023-05-16T12:28:19;5.60;;;1.50;;
14251;SDS011;7210;51.502;10.722;2023-05-16T12:30:46;3.07;;;1.33;;
14251;SDS011;7210;51.502;10.722;2023-05-16T12:33:21;6.03;;;1.67;;
14251;SDS011;7210;51.502;10.722;2023-05-16T12:35:48;5.07;;;1.73;;
14251;SDS011;7210;51.502;10.722;2023-05-16T12:38:17;4.80;;;1.57;;
14251;SDS011;7210;51.502;10.722;2023-05-16T12:40:49;2.83;;;1.40;;
14251;SDS011;7210;51.502;10.722;2023-05-16T12:43:24;4.77;;;1.30;;
14251;SDS011;7210;51.502;10.722;2023-05-16T12:45:52;4.50;;;1.40;;
14251;SDS011;7210;51.502;10.722;2023-05-16T12:48:23;4.03;;;1.50;;
14251;SDS011;7210;51.502;10.722;2023-05-16T12:51:07;3.80;;;1.90;;
14251;SDS011;7210;51.502;10.722;2023-05-16T12:53:40;3.83;;;1.40;;
14251;SDS011;7210;51.502;10.722;2023-05-16T12:56:09;5.13;;;1.40;;
14251;SDS011;7210;51.502;10.722;2023-05-16T12:58:37;2.83;;;1.20;;
14251;SDS011;7210;51.502;10.722;2023-05-16T13:01:04;3.73;;;1.30;;
14251;SDS011;7210;51.502;10.722;2023-05-16T13:03:33;7.73;;;1.73;;
14251;SDS011;7210;51.502;10.722;2023-05-16T13:06:01;2.70;;;1.30;;
14251;SDS011;7210;51.502;10.722;2023-05-16T13:08:30;3.10;;;1.10;;
14251;SDS011;7210;51.502;10.722;2023-05-16T13:10:57;4.13;;;1.80;;
14251;SDS011;7210;51.502;10.722;2023-05-16T13:13:24;2.73;;;1.20;;
14251;SDS011;7210;51.502;10.722;2023-05-16T13:15:51;4.93;;;1.37;;
14251;SDS011;7210;51.502;10.722;2023-05-16T13:18:19;3.60;;;1.67;;
14251;SDS011;7210;51.502;10.722;2023-05-16T13:20:57;4.83;;;1.63;;
14251;SDS011;7210;51.502;10.722;2023-05-16T13:23:25;4.63;;;1.40;;
14251;SDS011;7210;51.502;10.722;2023-05-16T13:25:55;2.73;;;1.57;;
14251;SDS011;7210;51.502;10.722;2023-05-16T13:28:22;4.83;;;1.50;;
14251;SDS011;7210;51.502;10.722;2023-05-16T13:31:01;3.67;;;1.10;;
14251;SDS011;7210;51.502;10.722;2023-05-16T13:33:31;4.43;;;1.20;;
14251;SDS011;7210;51.502;10.722;2023-05-16T13:36:01;4.33;;;1.30;;
14251;SDS011;7210;51.502;10.722;2023-05-16T13:38:29;3.20;;;1.20;;
14251;SDS011;7210;51.502;10.722;2023-05-16T13:40:56;2.53;;;1.13;;
14251;SDS011;7210;51.502;10.722;2023-05-16T13:43:23;2.23;;;1.00;;
14251;SDS011;7210;51.502;10.722;2023-05-16T13:45:51;4.33;;;1.57;;
14251;SDS011;7210;51.502;10.722;2023-05-16T13:48:18;3.47;;;1.50;;
14251;SDS011;7210;51.502;10.722;2023-05-16T13:50:45;3.80;;;1.23;;
14251;SDS011;7210;51.502;10.722;2023-05-16T13:53:14;2.77;;;1.30;;
14251;SDS011;7210;51.502;10.722;2023-05-16T13:55:41;4.93;;;1.43;;
14251;SDS011;7210;51.502;10.722;2023-05-16T13:58:08;6.70;;;1.37;;
14251;SDS011;7210;51.502;10.722;2023-05-16T14:00:35;4.40;;;1.33;;
14251;SDS011;7210;51.502;10.722;2023-05-16T14:03:02;2.83;;;1.23;;
14251;SDS011;7210;51.502;10.722;2023-05-16T14:05:30;4.10;;;1.33;;
14251;SDS011;7210;51.502;10.722;2023-05-16T14:07:58;2.97;;;1.30;;
14251;SDS011;7210;51.502;10.722;2023-05-16T14:10:27;3.83;;;1.30;;
14251;SDS011;7210;51.502;10.722;2023-05-16T14:12:55;3.33;;;1.27;;
14251;SDS011;7210;51.502;10.722;2023-05-16T14:15:23;5.53;;;1.80;;
14251;SDS011;7210;51.502;10.722;2023-05-16T14:17:50;3.13;;;1.40;;
14251;SDS011;7210;51.502;10.722;2023-05-16T14:20:17;4.40;;;1.30;;
14251;SDS011;7210;51.502;10.722;2023-05-16T14:22:46;5.37;;;1.30;;
14251;SDS011;7210;51.502;10.722;2023-05-16T14:25:13;3.77;;;1.20;;
14251;SDS011;7210;51.502;10.722;2023-05-16T14:27:42;4.60;;;1.20;;
14251;SDS011;7210;51.502;10.722;2023-05-16T14:30:09;3.13;;;1.20;;
14251;SDS011;7210;51.502;10.722;2023-05-16T14:32:37;4.87;;;1.60;;
14251;SDS011;7210;51.502;10.722;2023-05-16T14:35:05;5.03;;;1.40;;
14251;SDS011;7210;51.502;10.722;2023-05-16T14:37:34;3.40;;;1.13;;
14251;SDS011;7210;51.502;10.722;2023-05-16T14:40:01;2.57;;;1.23;;
14251;SDS011;7210;51.502;10.722;2023-05-16T14:42:30;3.37;;;1.10;;
14251;SDS011;7210;51.502;10.722;2023-05-16T14:44:58;4.83;;;1.27;;
14251;SDS011;7210;51.502;10.722;2023-05-16T14:47:25;3.03;;;1.17;;
14251;SDS011;7210;51.502;10.722;2023-05-16T14:49:55;2.17;;;1.13;;
14251;SDS011;7210;51.502;10.722;2023-05-16T14:52:22;3.20;;;1.43;;
14251;SDS011;7210;51.502;10.722;2023-05-16T14:54:49;2.83;;;1.07;;
14251;SDS011;7210;51.502;10.722;2023-05-16T14:57:16;3.77;;;1.03;;
14251;SDS011;7210;51.502;10.722;2023-05-16T14:59:43;2.77;;;1.27;;
14251;SDS011;7210;51.502;10.722;2023-05-16T15:02:15;2.30;;;1.13;;
14251;SDS011;7210;51.502;10.722;2023-05-16T15:04:42;1.97;;;1.10;;
14251;SDS011;7210;51.502;10.722;2023-05-16T15:07:09;3.50;;;1.20;;
14251;SDS011;7210;51.502;10.722;2023-05-16T15:09:36;2.73;;;1.13;;
14251;SDS011;7210;51.502;10.722;2023-05-16T15:12:04;3.10;;;1.27;;